Time;durP1;ratioP1;P1;durP2;ratioP2;P2;SDS_P1;SDS_P2;PMS_P1;PMS_P2;Temp;Humidity;BMP_temperature;BMP_pressure;BME280_temperature;BME280_humidity;BME280_pressure;Samples;Min_cycle;Max_cycle;Signal;HPM_P1;HPM_P2
2022/03/28 00:02:20;;;;;;;8.57;4.60;;;6.00;66.10;;;4.29;59.90;101303.28;10427539;27;96603;-81
2022/03/28 00:07:23;;;;;;;9.63;4.87;;;5.90;66.40;;;4.20;60.70;101307.38;10416806;27;96866;-81
2022/03/28 00:12:26;;;;;;;9.20;4.40;;;5.90;67.60;;;4.15;60.53;101306.81;10443804;27;96566;-81
2022/03/28 00:17:31;;;;;;;6.90;3.83;;;5.80;67.40;;;4.13;61.08;101305.22;10443945;27;96882;-80
2022/03/28 00:22:34;;;;;;;7.23;3.90;;;5.80;67.70;;;4.08;61.66;101294.13;10413169;27;96727;-80
2022/03/28 00:27:39;;;;;;;14.37;4.30;;;5.70;69.10;;;4.04;61.36;101301.41;10389540;27;96502;-81
2022/03/28 00:32:42;;;;;;;8.67;4.73;;;5.70;68.80;;;3.97;61.45;101300.13;10456806;27;96677;-81
2022/03/28 00:37:45;;;;;;;9.33;5.10;;;5.70;68.10;;;3.88;61.79;101293.66;10408297;27;96698;-81
2022/03/28 00:42:48;;;;;;;9.73;4.37;;;5.60;68.70;;;3.81;62.12;101281.84;10423309;27;96511;-81
2022/03/28 00:47:51;;;;;;;8.13;5.03;;;5.50;69.50;;;3.79;62.02;101288.16;10442278;27;96485;-81
2022/03/28 00:52:54;;;;;;;9.03;4.30;;;5.50;68.70;;;3.69;62.53;101282.63;10459244;27;96715;-81
2022/03/28 00:57:58;;;;;;;6.27;3.20;;;5.40;68.80;;;3.57;62.59;101278.97;10422920;27;96740;-81
2022/03/28 01:03:02;;;;;;;9.93;4.57;;;5.30;69.60;;;3.46;62.60;101270.91;10420487;27;96765;-81
2022/03/28 01:08:06;;;;;;;10.00;4.80;;;5.20;70.40;;;3.36;63.11;101270.66;10457653;27;96815;-81
2022/03/28 01:13:09;;;;;;;11.67;5.10;;;5.10;70.40;;;3.25;63.38;101267.84;10437922;27;97051;-77
2022/03/28 01:18:15;;;;;;;7.63;3.77;;;5.10;71.40;;;3.12;63.27;101262.53;10443750;27;97567;-81
2022/03/28 01:23:18;;;;;;;6.17;4.03;;;5.00;71.50;;;3.03;63.85;101259.59;10467085;27;96442;-81
2022/03/28 01:28:25;;;;;;;10.10;5.00;;;4.90;72.60;;;2.95;64.53;101244.31;10409274;27;96523;-80
2022/03/28 01:33:28;;;;;;;11.33;5.27;;;4.80;72.40;;;2.87;65.14;101247.38;10421397;27;96628;-81
2022/03/28 01:38:30;;;;;;;10.87;4.37;;;4.70;74.10;;;2.79;65.30;101244.41;10424915;27;96409;-81
2022/03/28 01:43:33;;;;;;;13.03;5.57;;;4.60;73.70;;;2.72;65.12;101243.06;10461575;27;96465;-81
2022/03/28 01:48:36;;;;;;;8.23;4.53;;;4.60;74.00;;;2.61;65.86;101233.22;10436420;27;96426;-81
2022/03/28 01:53:39;;;;;;;14.97;6.23;;;4.50;75.50;;;2.57;65.77;101234.31;10432577;27;96578;-81
2022/03/28 01:58:42;;;;;;;12.90;5.43;;;4.40;75.50;;;2.48;66.16;101241.91;10438774;27;96761;-81
2022/03/28 02:03:45;;;;;;;13.20;6.67;;;4.30;77.50;;;2.38;66.34;101237.19;10476602;27;97407;-82
2022/03/28 02:08:48;;;;;;;10.87;5.57;;;4.20;76.60;;;2.31;66.92;101233.25;10408594;28;96530;-82
2022/03/28 02:13:51;;;;;;;10.83;4.43;;;4.10;77.90;;;2.21;67.04;101234.69;10429440;27;98024;-81
2022/03/28 02:18:56;;;;;;;8.37;4.67;;;4.10;78.40;;;2.12;67.13;101248.38;10420152;27;96567;-82
2022/03/28 02:23:59;;;;;;;6.03;3.43;;;4.00;80.20;;;2.03;67.66;101233.16;10425681;27;96485;-81
2022/03/28 02:29:03;;;;;;;11.47;5.07;;;3.90;81.70;;;1.93;67.79;101232.00;10437222;27;96588;-82
2022/03/28 02:34:06;;;;;;;10.57;3.87;;;3.80;80.70;;;1.85;68.16;101235.88;10466428;27;96477;-81
2022/03/28 02:39:10;;;;;;;8.43;4.27;;;3.70;82.70;;;1.81;68.64;101228.31;10438340;27;96449;-82
2022/03/28 02:44:14;;;;;;;8.40;4.90;;;3.70;83.50;;;1.82;68.39;101235.22;10418374;27;97980;-81
2022/03/28 02:49:19;;;;;;;9.73;3.87;;;3.70;82.90;;;1.77;68.71;101230.22;10427991;27;96605;-82
2022/03/28 02:54:22;;;;;;;10.00;5.10;;;3.60;84.90;;;1.71;69.12;101235.81;10435217;27;96487;-82
2022/03/28 02:59:25;;;;;;;9.00;5.00;;;3.60;85.20;;;1.66;69.03;101234.38;10431047;27;96499;-82
2022/03/28 03:04:29;;;;;;;8.80;4.23;;;3.50;86.20;;;1.56;69.22;101236.66;10463195;27;97550;-82
2022/03/28 03:09:32;;;;;;;10.77;4.30;;;3.40;85.90;;;1.54;69.32;101230.66;10449390;27;96418;-82
2022/03/28 03:14:35;;;;;;;12.07;4.87;;;3.40;86.70;;;1.48;70.08;101223.16;10462010;27;96792;-82
2022/03/28 03:19:40;;;;;;;7.27;4.00;;;3.40;89.70;;;1.44;69.95;101219.88;10422631;27;98163;-82
2022/03/28 03:24:44;;;;;;;10.43;4.20;;;3.30;88.50;;;1.40;70.18;101214.88;10410324;27;96591;-81
2022/03/28 03:29:48;;;;;;;8.23;4.07;;;3.30;90.00;;;1.31;70.52;101209.19;10428425;27;96526;-81
2022/03/28 03:34:51;;;;;;;8.97;3.57;;;3.20;90.50;;;1.27;70.42;101212.94;10459442;27;96501;-81
2022/03/28 03:39:54;;;;;;;11.93;4.43;;;3.10;89.60;;;1.24;70.62;101204.38;10440907;27;96533;-81
2022/03/28 03:44:58;;;;;;;11.43;5.27;;;3.10;90.80;;;1.20;70.32;101200.22;10441666;27;96555;-81
2022/03/28 03:50:04;;;;;;;10.80;5.00;;;3.10;89.70;;;1.18;70.17;101202.09;10402460;27;96576;-82
2022/03/28 03:55:08;;;;;;;16.50;5.53;;;3.10;89.40;;;1.14;69.63;101203.19;10390046;28;96391;-82
2022/03/28 04:00:11;;;;;;;16.47;6.80;;;3.00;89.40;;;1.09;70.90;101200.84;10419441;27;98199;-82
2022/03/28 04:05:14;;;;;;;15.73;6.60;;;3.00;90.50;;;1.08;70.73;101214.88;10423001;27;96582;-81
2022/03/28 04:10:17;;;;;;;15.23;5.67;;;3.00;89.90;;;1.03;70.43;101211.66;10406683;27;96620;-82
2022/03/28 04:15:21;;;;;;;17.60;6.47;;;2.90;89.00;;;0.96;70.37;101211.13;10434524;27;96663;-84
2022/03/28 04:20:25;;;;;;;16.53;6.47;;;2.90;89.50;;;0.93;70.31;101207.81;10436451;27;96560;-82
2022/03/28 04:25:28;;;;;;;14.83;6.03;;;2.90;89.70;;;0.88;70.31;101205.44;10458367;27;96607;-81
2022/03/28 04:30:31;;;;;;;10.67;5.13;;;2.80;89.50;;;0.88;70.80;101205.44;10444194;27;96489;-81
2022/03/28 04:35:37;;;;;;;11.63;4.83;;;2.80;89.70;;;0.86;70.74;101215.16;10406244;28;96553;-81
2022/03/28 04:40:40;;;;;;;10.37;5.10;;;2.80;90.70;;;0.85;71.28;101212.63;10398172;27;96623;-81
2022/03/28 04:45:44;;;;;;;15.20;5.13;;;2.70;91.90;;;0.83;71.70;101209.22;10424789;27;97635;-81
2022/03/28 04:50:47;;;;;;;15.97;5.63;;;2.70;92.00;;;0.84;71.98;101203.06;10427709;27;96572;-81
2022/03/28 04:55:50;;;;;;;17.40;5.97;;;2.70;91.70;;;0.90;72.17;101211.47;10463950;27;96604;-81
2022/03/28 05:00:53;;;;;;;22.10;6.57;;;2.70;92.80;;;0.97;72.21;101204.97;10410454;27;96775;-84
2022/03/28 05:05:56;;;;;;;19.33;6.40;;;2.70;92.30;;;1.05;72.41;101201.94;10415794;27;96846;-85
2022/03/28 05:10:59;;;;;;;18.67;7.20;;;2.80;92.40;;;1.13;72.08;101199.72;10417211;27;96683;-85
2022/03/28 05:16:02;;;;;;;11.63;6.53;;;2.90;91.90;;;1.24;72.04;101202.59;10440935;27;96581;-83
2022/03/28 05:21:05;;;;;;;17.93;6.60;;;3.00;92.60;;;1.34;72.26;101209.03;10411844;27;96353;-83
2022/03/28 05:26:11;;;;;;;18.00;7.10;;;3.10;93.10;;;1.47;71.86;101205.75;10416316;27;96401;-84
2022/03/28 05:31:15;;;;;;;18.83;7.23;;;3.20;92.60;;;1.65;72.15;101209.13;10444507;27;96482;-84
2022/03/28 05:36:18;;;;;;;15.40;6.67;;;3.30;93.90;;;1.85;72.46;101196.56;10449133;27;96977;-80
2022/03/28 05:41:21;;;;;;;22.73;7.67;;;3.40;94.20;;;2.03;71.73;101199.91;10445069;27;96779;-78
2022/03/28 05:46:25;;;;;;;14.47;6.87;;;3.60;93.00;;;2.24;70.87;101205.69;10455255;27;96561;-82
2022/03/28 05:51:28;;;;;;;13.70;6.10;;;3.80;93.00;;;2.45;70.66;101198.31;10436213;27;98015;-78
2022/03/28 05:56:31;;;;;;;13.30;6.07;;;4.00;92.40;;;2.72;70.23;101189.75;10459012;27;96706;-81
2022/03/28 06:01:36;;;;;;;16.33;6.33;;;4.20;92.60;;;3.09;69.14;101196.19;10443188;27;96673;-79
2022/03/28 06:06:39;;;;;;;16.60;7.20;;;4.50;91.80;;;3.45;68.74;101193.88;10426436;27;96617;-79
2022/03/28 06:11:42;;;;;;;27.23;10.50;;;4.80;91.30;;;3.84;67.69;101194.00;10427416;28;96463;-78
2022/03/28 06:16:44;;;;;;;18.40;8.40;;;5.20;91.70;;;4.18;66.70;101185.59;10413086;27;98217;-79
2022/03/28 06:21:47;;;;;;;19.00;8.07;;;5.50;91.00;;;4.49;65.29;101181.72;10397225;28;96646;-80
2022/03/28 06:26:50;;;;;;;22.90;9.07;;;5.80;90.20;;;4.74;64.07;101180.06;10385529;28;97191;-80
2022/03/28 06:31:56;;;;;;;35.33;11.10;;;6.10;88.30;;;4.96;63.25;101180.22;10412659;27;96542;-80
2022/03/28 06:37:00;;;;;;;32.50;10.23;;;6.30;86.80;;;5.20;62.69;101174.16;10426500;27;98336;-80
2022/03/28 06:42:03;;;;;;;26.57;9.37;;;6.50;85.70;;;5.46;61.58;101169.66;10436000;27;96585;-80
2022/03/28 06:47:06;;;;;;;12.30;6.80;;;6.80;83.90;;;5.75;61.11;101167.53;10441437;27;96532;-79
2022/03/28 06:52:09;;;;;;;19.47;8.30;;;7.10;83.10;;;6.08;59.54;101162.44;10386274;28;98121;-80
2022/03/28 06:57:12;;;;;;;20.83;9.57;;;7.40;80.90;;;6.42;58.89;101154.59;10427945;27;96484;-80
2022/03/28 07:02:15;;;;;;;23.03;9.50;;;7.60;80.40;;;6.75;57.90;101152.94;10423052;27;96592;-80
2022/03/28 07:07:18;;;;;;;15.33;8.37;;;8.00;78.70;;;7.05;56.44;101161.09;10442560;27;96563;-80
2022/03/28 07:12:23;;;;;;;16.30;7.77;;;8.30;77.00;;;7.30;54.77;101154.66;10449288;27;96557;-80
2022/03/28 07:17:26;;;;;;;18.07;8.23;;;8.50;75.20;;;7.58;53.04;101145.34;10436213;27;96438;-80
2022/03/28 07:22:29;;;;;;;15.23;6.70;;;8.80;73.10;;;7.88;52.04;101146.44;10440813;27;96465;-80
2022/03/28 07:27:40;;;;;;;13.20;7.03;;;9.10;71.40;;;8.19;51.24;101142.91;10449077;27;96451;-78
2022/03/28 07:32:44;;;;;;;;;;;9.40;69.60;;;8.54;50.08;101141.75;10468766;27;96615;-80
2022/03/28 07:37:48;;;;;;;13.37;7.00;;;9.70;66.30;;;8.83;49.11;101148.03;10443416;27;96435;-80
2022/03/28 07:42:54;;;;;;;16.90;7.60;;;10.00;66.40;;;9.07;47.66;101137.09;10448100;27;96526;-80
2022/03/28 07:47:57;;;;;;;11.77;6.70;;;10.30;64.90;;;9.41;47.69;101133.22;10451171;27;96579;-78
2022/03/28 07:53:02;;;;;;;15.57;7.37;;;10.60;64.50;;;9.77;46.83;101121.94;10465190;27;96485;-79
2022/03/28 07:58:06;;;;;;;17.00;7.47;;;11.10;63.80;;;10.49;45.57;101119.75;10441779;27;96595;-79
2022/03/28 08:03:09;;;;;;;12.70;7.73;;;11.70;62.80;;;11.24;42.83;101105.41;10438146;27;97957;-79
2022/03/28 08:08:12;;;;;;;14.80;8.40;;;12.30;61.30;;;12.00;41.92;101099.66;10443238;27;96558;-79
2022/03/28 08:13:15;;;;;;;15.13;8.77;;;13.00;60.00;;;12.84;41.02;101096.31;10458653;27;96456;-81
2022/03/28 08:18:19;;;;;;;15.50;7.40;;;13.70;58.40;;;13.74;38.77;101085.84;10434822;27;97123;-80
2022/03/28 08:23:22;;;;;;;16.60;6.95;;;14.40;56.80;;;14.83;37.29;101070.09;10429178;27;96619;-81
2022/03/28 08:28:26;;;;;;;18.38;8.30;;;15.20;55.70;;;15.90;33.41;101073.75;10413121;27;97322;-81
2022/03/28 08:33:29;;;;;;;17.63;8.00;;;15.90;53.10;;;16.56;33.06;101061.31;10423663;28;96789;-81
2022/03/28 08:38:34;;;;;;;12.80;7.47;;;16.50;52.00;;;17.14;31.51;101053.38;10414021;27;96977;-81
2022/03/28 08:43:37;;;;;;;15.80;7.70;;;17.20;50.50;;;17.56;30.91;101041.78;10421429;28;96624;-81
2022/03/28 08:48:40;;;;;;;16.10;7.60;;;17.60;49.20;;;17.88;28.41;101043.16;10404358;28;96557;-81
2022/03/28 08:53:44;;;;;;;11.80;7.10;;;18.10;47.70;;;18.24;28.83;101031.41;10427805;27;96572;-81
2022/03/28 08:58:48;;;;;;;12.95;8.05;;;18.40;47.00;;;18.90;26.97;101023.66;10421486;27;96467;-81
2022/03/28 09:03:51;;;;;;;16.58;7.97;;;18.90;45.70;;;18.85;26.00;101014.53;10435955;27;96534;-81
2022/03/28 09:09:21;;;;;;;11.93;7.95;;;19.20;43.60;;;18.50;27.11;101005.66;10444546;27;96735;-81
2022/03/28 09:14:37;;;;;;;9.85;6.80;;;19.30;40.30;;;18.81;26.86;101003.31;10431419;27;96656;-81
2022/03/28 09:19:53;;;;;;;12.07;6.53;;;19.30;40.10;;;19.25;26.38;100999.25;10436103;27;96709;-81
2022/03/28 09:24:59;;;;;;;13.32;7.40;;;19.30;42.10;;;19.04;25.40;100994.88;10421791;27;97303;-81
2022/03/28 09:30:02;;;;;;;14.38;6.95;;;19.30;41.30;;;18.75;26.38;100990.66;10405588;27;96661;-81
2022/03/28 09:35:23;;;;;;;14.25;8.40;;;19.40;41.00;;;18.83;25.42;100971.66;10421431;28;96445;-80
2022/03/28 09:40:53;;;;;;;19.10;8.13;;;19.50;40.30;;;19.04;25.53;100977.91;10433102;27;98014;-81
2022/03/28 09:45:58;;;;;;;16.20;7.77;;;19.70;40.50;;;19.86;24.80;100953.25;10433984;27;97865;-81
2022/03/28 09:51:05;;;;;;;11.77;6.07;;;20.40;40.20;;;20.79;24.35;100948.34;10404649;27;96674;-87
2022/03/28 09:56:10;;;;;;;10.40;6.10;;;21.00;40.00;;;21.69;23.35;100929.16;10421546;27;96688;-86
2022/03/28 10:01:24;;;;;;;11.70;6.10;;;21.80;38.70;;;22.20;21.61;100919.91;10436239;27;96740;-86
2022/03/28 10:06:29;;;;;;;10.50;5.50;;;22.60;38.00;;;22.71;21.88;100914.00;10432996;27;96646;-87
2022/03/28 10:11:32;;;;;;;10.93;5.50;;;23.10;37.10;;;23.05;20.57;100895.38;10462647;27;96585;-86
2022/03/28 10:16:36;;;;;;;9.07;5.45;;;23.50;36.20;;;22.37;22.26;100890.31;10463156;27;95768;-85
2022/03/28 10:21:39;;;;;;;10.45;5.50;;;23.30;35.30;;;22.49;22.14;100869.53;10470330;27;96123;-84
2022/03/28 10:26:48;;;;;;;10.10;5.47;;;23.40;35.60;;;22.89;22.25;100868.94;10468744;27;96509;-86
2022/03/28 10:31:57;;;;;;;8.38;4.78;;;23.70;35.80;;;23.49;21.68;100847.06;10431064;27;97002;-86
2022/03/28 10:37:48;;;;;;;10.00;5.55;;;24.20;35.60;;;23.87;21.83;100833.00;10414642;27;96691;-86
2022/03/28 10:43:03;;;;;;;8.13;5.25;;;24.50;35.20;;;24.38;21.83;100825.03;10463709;27;96552;-86
2022/03/28 10:48:14;;;;;;;9.95;5.18;;;25.00;35.40;;;24.84;20.94;100802.19;10430382;27;96767;-86
2022/03/28 10:53:37;;;;;;;8.38;4.97;;;25.50;35.30;;;24.99;21.21;100793.44;10400828;27;97979;-85
2022/03/28 10:58:52;;;;;;;7.88;4.50;;;25.70;34.70;;;25.23;21.43;100781.31;10434638;27;96560;-86
2022/03/28 11:04:15;;;;;;;7.22;5.15;;;25.90;34.50;;;25.56;21.84;100765.97;10425827;27;96853;-86
2022/03/28 11:09:50;;;;;;;8.25;4.70;;;26.30;35.40;;;25.81;21.61;100747.25;10440866;27;96588;-87
2022/03/28 11:15:23;;;;;;;5.53;4.07;;;26.50;34.70;;;26.21;21.52;100737.88;10465778;27;96581;-87
2022/03/28 11:20:28;;;;;;;8.07;4.32;;;26.90;35.10;;;26.33;21.12;100724.91;10437601;27;96900;-87
2022/03/28 11:25:46;;;;;;;7.65;4.43;;;27.20;35.10;;;26.35;21.41;100706.38;10440607;27;96592;-86
2022/03/28 11:30:58;;;;;;;7.07;4.13;;;27.30;34.30;;;26.35;21.93;100711.81;10382025;28;96567;-86
2022/03/28 11:36:15;;;;;;;5.75;3.95;;;27.40;35.10;;;26.21;22.42;100698.88;10438966;27;97077;-86
2022/03/28 11:41:21;;;;;;;5.53;3.88;;;27.40;35.20;;;25.86;22.77;100689.31;10447447;27;96604;-86
2022/03/28 11:46:30;;;;;;;5.90;4.32;;;27.10;35.40;;;25.47;22.42;100674.97;10438903;27;96975;-86
2022/03/28 11:51:37;;;;;;;5.50;4.03;;;26.80;35.20;;;25.66;22.04;100668.09;10410872;27;96739;-86
2022/03/28 12:02:06;;;;;;;5.50;3.60;;;26.80;35.10;;;26.00;21.96;100646.97;10450028;27;96583;-87
2022/03/28 12:07:09;;;;;;;6.72;3.63;;;27.00;34.80;;;26.06;22.18;100629.59;10446277;27;96594;-87
2022/03/28 12:12:12;;;;;;;5.38;3.35;;;27.10;35.00;;;26.08;21.46;100605.63;10419846;28;96535;-87
2022/03/28 12:17:27;;;;;;;5.38;3.88;;;27.30;34.70;;;25.42;22.83;100602.28;10430934;27;96497;-85
2022/03/28 12:22:47;;;;;;;6.53;4.20;;;26.70;35.00;;;25.57;22.73;100586.13;10447218;27;96497;-85
2022/03/28 12:27:56;;;;;;;5.95;3.80;;;26.90;35.30;;;25.09;23.42;100585.06;10439007;27;96755;-86
2022/03/28 12:33:26;;;;;;;5.72;3.58;;;26.60;35.30;;;25.51;23.44;100565.38;10420408;28;96534;-86
2022/03/28 12:38:40;;;;;;;7.18;4.03;;;26.80;35.70;;;25.87;22.96;100546.66;10456397;27;96825;-86
2022/03/28 12:43:49;;;;;;;10.75;4.53;;;27.30;35.10;;;25.97;22.70;100545.91;10464026;27;96519;-86
2022/03/28 12:48:54;;;;;;;7.37;4.33;;;27.40;34.90;;;26.07;22.68;100533.19;10465523;27;96786;-86
2022/03/28 12:54:06;;;;;;;7.93;4.07;;;27.50;35.00;;;25.93;22.49;100525.75;10457909;27;96513;-86
2022/03/28 12:59:25;;;;;;;5.57;3.63;;;27.40;34.60;;;25.86;22.50;100506.91;10406132;28;96518;-86
2022/03/28 13:04:28;;;;;;;7.35;4.03;;;27.30;35.00;;;25.82;22.97;100501.16;10402828;28;96629;-85
2022/03/28 13:09:31;;;;;;;6.07;4.55;;;27.30;34.80;;;25.51;23.05;100491.94;10423553;27;96626;-85
2022/03/28 13:14:34;;;;;;;13.82;4.55;;;27.20;34.80;;;25.50;22.59;100479.41;10421696;28;96583;-85
2022/03/28 13:19:41;;;;;;;8.85;5.13;;;27.20;34.50;;;25.48;22.93;100462.50;10421023;27;96538;-85
2022/03/28 13:24:44;;;;;;;5.95;4.40;;;27.10;34.80;;;25.20;22.92;100460.91;10438049;27;97837;-87
2022/03/28 13:29:48;;;;;;;8.27;4.25;;;26.90;34.80;;;24.57;23.57;100448.81;10430645;27;96823;-86
2022/03/28 13:34:51;;;;;;;5.45;3.92;;;26.30;34.90;;;24.67;23.78;100439.97;10447369;27;96621;-83
2022/03/28 13:39:55;;;;;;;7.00;3.92;;;26.30;35.30;;;25.03;23.55;100416.69;10449096;27;96680;-83
2022/03/28 13:44:57;;;;;;;5.72;3.85;;;26.50;35.30;;;24.94;23.58;100412.78;10466221;27;96567;-83
2022/03/28 13:50:00;;;;;;;10.65;5.40;;;26.70;35.10;;;25.00;23.67;100406.31;10428492;27;97522;-82
2022/03/28 13:55:04;;;;;;;19.20;10.02;;;26.60;35.00;;;25.22;23.48;100393.47;10432743;27;96593;-83
2022/03/28 14:00:09;;;;;;;6.32;4.40;;;26.90;35.20;;;25.57;22.75;100383.94;10455794;27;98186;-82
2022/03/28 14:05:32;;;;;;;6.95;3.83;;;27.20;34.90;;;25.14;23.23;100374.94;10357175;28;96543;-83
2022/03/28 14:10:35;;;;;;;8.05;3.80;;;26.90;34.60;;;25.33;22.88;100361.75;10418935;27;96629;-83
2022/03/28 14:15:38;;;;;;;6.10;3.17;;;26.90;34.70;;;25.47;22.97;100346.59;10461583;27;96551;-83
2022/03/28 14:20:42;;;;;;;5.80;3.78;;;26.90;34.80;;;25.49;22.84;100339.00;10419105;27;96717;-83
2022/03/28 14:25:45;;;;;;;5.32;3.55;;;27.00;34.30;;;25.41;22.93;100325.88;10433662;27;96562;-83
2022/03/28 14:30:48;;;;;;;7.15;3.70;;;26.90;34.70;;;25.51;23.04;100317.78;10433198;27;98108;-83
2022/03/28 14:35:51;;;;;;;4.97;3.20;;;27.00;34.80;;;25.89;22.05;100303.03;10427590;27;97312;-83
2022/03/28 14:40:54;;;;;;;7.95;3.60;;;27.20;34.50;;;25.65;22.76;100301.81;10453615;27;96697;-82
2022/03/28 14:51:19;;;;;;;5.85;3.78;;;26.90;34.60;;;25.39;22.43;100289.16;10467647;27;96576;-82
2022/03/28 14:56:22;;;;;;;8.27;4.78;;;26.80;34.60;;;25.89;22.24;100272.25;10445019;27;96617;-82
2022/03/28 15:01:31;;;;;;;9.68;4.60;;;27.10;34.60;;;26.07;21.97;100269.03;10432266;27;97075;-82
2022/03/28 15:06:36;;;;;;;6.70;3.60;;;27.30;34.40;;;26.02;22.14;100266.31;10404197;27;96788;-82
2022/03/28 15:11:41;;;;;;;14.32;6.18;;;27.30;34.20;;;25.93;21.98;100257.03;10435456;27;96649;-82
2022/03/28 15:16:44;;;;;;;7.78;4.32;;;27.10;33.70;;;25.72;22.50;100250.66;10424952;27;96562;-83
2022/03/28 15:21:47;;;;;;;8.00;4.38;;;27.10;34.30;;;25.82;22.25;100250.75;10418682;28;96534;-82
2022/03/28 15:26:50;;;;;;;6.93;4.00;;;27.10;34.30;;;25.63;22.42;100249.56;10415333;27;96654;-82
2022/03/28 15:31:53;;;;;;;7.60;3.92;;;26.70;34.20;;;25.43;22.77;100238.56;10423112;28;96570;-82
2022/03/28 15:36:58;;;;;;;43.13;5.65;;;26.70;34.60;;;25.55;22.89;100233.72;10439205;27;96695;-82
2022/03/28 15:42:03;;;;;;;7.00;3.85;;;26.60;34.70;;;25.43;22.48;100219.53;10439546;27;96667;-82
2022/03/28 15:47:06;;;;;;;6.47;4.13;;;26.70;34.60;;;24.92;23.15;100225.47;10433438;27;96659;-82
2022/03/28 15:52:10;;;;;;;12.55;6.28;;;26.30;34.80;;;24.73;23.83;100216.13;10423137;28;96562;-81
2022/03/28 15:57:13;;;;;;;7.95;4.55;;;25.90;35.30;;;24.52;23.59;100206.97;10434444;27;96607;-82
2022/03/28 16:02:17;;;;;;;6.53;4.20;;;25.80;35.30;;;24.13;24.15;100204.44;10444009;27;96564;-81
2022/03/28 16:07:20;;;;;;;11.55;5.40;;;25.40;35.50;;;23.62;25.15;100203.09;10442893;27;98086;-82
2022/03/28 16:12:22;;;;;;;7.18;4.25;;;25.00;35.80;;;22.90;25.59;100198.59;10433398;27;96922;-82
2022/03/28 16:17:25;;;;;;;6.25;4.00;;;24.40;36.10;;;22.04;26.61;100198.78;10426062;27;97440;-82
2022/03/28 16:22:29;;;;;;;8.57;4.28;;;23.60;36.70;;;21.38;27.62;100198.31;10424226;27;96535;-82
2022/03/28 16:27:32;;;;;;;6.30;3.78;;;22.90;37.60;;;20.79;28.63;100200.22;10416845;27;96635;-82
2022/03/28 16:32:35;;;;;;;21.70;9.55;;;22.40;38.30;;;20.21;29.27;100197.41;10422323;28;96582;-81
2022/03/28 16:37:39;;;;;;;19.30;9.57;;;21.70;38.90;;;19.75;29.65;100190.81;10426281;27;96907;-82
2022/03/28 16:42:42;;;;;;;15.30;7.32;;;21.30;39.60;;;19.31;30.61;100189.25;10436470;27;96615;-81
2022/03/28 16:47:48;;;;;;;8.50;4.78;;;20.80;40.00;;;18.82;31.64;100183.78;10410918;27;97069;-81
2022/03/28 16:52:52;;;;;;;11.73;5.40;;;20.40;40.40;;;18.36;32.75;100179.63;10436784;27;96451;-81
2022/03/28 16:57:55;;;;;;;15.35;6.18;;;19.90;41.10;;;17.96;33.29;100175.56;10437763;27;96602;-81
2022/03/28 17:02:58;;;;;;;8.68;4.88;;;19.50;41.70;;;17.63;33.70;100181.88;10392783;27;96815;-82
2022/03/28 17:08:03;;;;;;;11.27;5.18;;;19.20;42.00;;;17.33;34.23;100173.53;10438656;27;97917;-80
2022/03/28 17:13:07;;;;;;;8.02;4.38;;;18.90;42.60;;;17.01;34.96;100173.44;10421550;27;96803;-80
2022/03/28 17:18:10;;;;;;;25.65;16.02;;;18.60;43.10;;;16.68;35.56;100172.66;10436358;27;96515;-81
2022/03/28 17:23:13;;;;;;;21.88;11.77;;;18.20;43.50;;;16.36;36.30;100190.41;10437878;27;96714;-81
2022/03/28 17:28:16;;;;;;;12.05;7.40;;;18.00;44.10;;;16.10;36.88;100180.50;10436813;27;96531;-81
2022/03/28 17:33:20;;;;;;;10.40;6.13;;;17.60;44.60;;;15.84;37.26;100178.59;10440318;27;98195;-80
2022/03/28 17:38:23;;;;;;;9.32;5.30;;;17.40;44.90;;;15.66;37.37;100171.94;10407981;28;96554;-80
2022/03/28 17:43:26;;;;;;;9.73;4.90;;;17.20;45.30;;;15.47;37.87;100194.06;10441528;27;96498;-80
2022/03/28 17:48:30;;;;;;;9.52;5.03;;;17.00;45.60;;;15.26;38.26;100193.19;10435762;27;96522;-79
2022/03/28 17:53:33;;;;;;;9.55;5.63;;;16.80;45.90;;;15.09;38.41;100183.81;10431031;27;96574;-80
2022/03/28 17:58:36;;;;;;;7.68;5.70;;;16.60;46.30;;;14.92;38.82;100194.00;10432474;27;96596;-79
2022/03/28 18:03:39;;;;;;;9.30;5.97;;;16.40;46.60;;;14.72;39.16;100183.19;10428722;27;96569;-80
2022/03/28 18:08:44;;;;;;;7.82;5.25;;;16.30;46.90;;;14.54;39.58;100185.50;10426181;27;96734;-80
2022/03/28 18:13:48;;;;;;;8.13;4.90;;;16.10;47.10;;;14.36;39.87;100190.47;10437226;27;96564;-81
2022/03/28 18:18:51;;;;;;;10.10;5.57;;;15.90;47.60;;;14.24;40.00;100186.66;10405700;27;97470;-80
2022/03/28 18:23:55;;;;;;;8.97;5.30;;;15.70;47.50;;;14.18;40.30;100183.72;10419200;27;96551;-79
2022/03/28 18:28:58;;;;;;;10.97;5.53;;;15.60;47.80;;;14.19;40.43;100184.56;10462503;27;96686;-80
2022/03/28 18:34:02;;;;;;;9.17;5.17;;;15.60;47.90;;;14.28;39.85;100177.25;10450010;27;97074;-81
2022/03/28 18:39:06;;;;;;;8.00;5.17;;;15.60;47.90;;;14.40;39.64;100170.38;10429132;27;96612;-81
2022/03/28 18:44:09;;;;;;;10.93;5.53;;;15.70;47.90;;;14.57;39.28;100170.91;10435153;27;96460;-82
2022/03/28 18:49:12;;;;;;;6.82;4.97;;;15.80;48.00;;;14.65;39.20;100160.09;10459865;27;96514;-82
2022/03/28 18:54:15;;;;;;;8.15;4.78;;;15.90;48.10;;;14.77;39.01;100169.22;10429612;27;96524;-82
2022/03/28 18:59:34;;;;;;;9.77;4.77;;;15.90;48.00;;;14.85;38.71;100168.22;10400713;27;96698;-82
2022/03/28 19:04:38;;;;;;;8.93;4.90;;;16.00;47.70;;;14.94;38.56;100151.84;10447310;27;96734;-82
2022/03/28 19:09:41;;;;;;;8.32;4.63;;;16.10;47.70;;;14.96;38.32;100146.28;10429906;27;96508;-82
2022/03/28 19:14:46;;;;;;;12.93;6.78;;;16.10;47.60;;;14.71;39.61;100151.28;10452456;27;96713;-83
2022/03/28 19:19:49;;;;;;;16.00;8.00;;;16.10;48.00;;;14.27;40.25;100148.84;10457390;27;96514;-82
2022/03/28 19:24:52;;;;;;;16.90;8.23;;;15.80;48.30;;;13.79;41.14;100153.94;10428461;27;96682;-84
2022/03/28 19:29:55;;;;;;;13.97;7.10;;;15.40;48.90;;;13.33;42.06;100156.94;10433854;27;96561;-82
2022/03/28 19:34:59;;;;;;;16.77;9.70;;;15.00;49.40;;;12.93;43.26;100152.88;10421987;27;96661;-83
2022/03/28 19:40:04;;;;;;;17.47;8.93;;;14.60;50.20;;;12.54;44.17;100151.31;10415526;27;96576;-82
2022/03/28 19:45:09;;;;;;;16.23;9.60;;;14.30;50.80;;;12.20;45.02;100149.09;10439191;27;98691;-80
2022/03/28 19:50:12;;;;;;;17.03;9.27;;;13.90;51.20;;;11.90;45.65;100149.00;10435297;27;96653;-81
2022/03/28 19:55:15;;;;;;;20.90;11.40;;;13.60;52.20;;;11.60;45.80;100147.19;10402381;27;98048;-80
2022/03/28 20:00:21;;;;;;;22.57;11.87;;;13.30;52.20;;;11.26;47.60;100145.69;10399722;27;96568;-83
2022/03/28 20:05:25;;;;;;;17.20;9.80;;;13.00;53.40;;;10.94;48.10;100136.84;10401139;28;96645;-81
2022/03/28 20:10:28;;;;;;;20.97;11.13;;;12.70;53.80;;;10.67;49.06;100130.09;10400584;28;96533;-81
2022/03/28 20:15:32;;;;;;;23.37;11.40;;;12.40;54.40;;;10.42;49.80;100115.22;10404338;27;96761;-81
2022/03/28 20:20:35;;;;;;;26.70;12.90;;;12.10;55.10;;;10.21;50.86;100114.91;10402420;28;96663;-80
2022/03/28 20:25:39;;;;;;;24.37;13.13;;;11.90;55.70;;;10.00;51.64;100110.91;10395211;27;96577;-83
2022/03/28 20:30:45;;;;;;;24.73;12.17;;;11.70;56.40;;;9.83;52.01;100102.13;10440323;27;96729;-82
2022/03/28 20:35:48;;;;;;;22.97;12.10;;;11.50;56.40;;;9.68;52.83;100103.78;10432305;27;96712;-82
2022/03/28 20:40:52;;;;;;;20.47;11.23;;;11.40;57.50;;;9.51;53.60;100097.63;10407592;27;98477;-83
2022/03/28 20:45:56;;;;;;;15.17;8.13;;;11.20;58.60;;;9.41;54.27;100093.44;10433808;27;96800;-82
2022/03/28 20:51:02;;;;;;;16.73;9.20;;;11.10;58.80;;;9.30;54.40;100087.47;10404622;27;96409;-82
2022/03/28 20:56:05;;;;;;;13.90;7.77;;;10.90;59.00;;;9.19;54.91;100076.34;10432223;27;96596;-82
2022/03/28 21:01:09;;;;;;;13.57;7.20;;;10.80;59.60;;;9.10;54.97;100070.16;10420077;27;96793;-82
2022/03/28 21:06:12;;;;;;;13.53;6.07;;;10.70;59.60;;;9.01;55.24;100068.50;10408251;27;96900;-82
2022/03/28 21:11:16;;;;;;;14.40;8.33;;;10.60;59.80;;;8.91;56.26;100065.16;10411167;27;96573;-82